Latest Weather Observations for Lord Howe Island Windy Point

IDN60801

Issued at 6:33 am EST Saturday 24 June 2017 (issued every 30 minutes, with the page automatically refreshed every 10 minutes)

About weather observations | Map of weather stations | Latest weather observations for NSW | Other Formats
Station Details ID: 200715 Name: LORD HOWE ISLAND WINDY POINT Lat: -31.54 Lon: 159.07 Height: 4.0 m
Data from the previous 72 hours. | See also: Recent months for locations in New South Wales
Date/Time
EST
Temp
°C
App
Temp
°C
Dew
Point
°C
Rel
Hum
%
Delta-T
°C
Wind Press
QNH
hPa
Press
MSL
hPa
Rain since
9am
mm
Dir  Spd
km/h
Gust
km/h
Spd
kts
Gust
kts
24/06:30am - - - - - WNW 35 48 19 26 - - -
24/06:00am - - - - - WNW 37 46 20 25 - - -
24/05:30am - - - - - W 37 46 20 25 - - -
24/05:00am - - - - - WNW 35 41 19 22 - - -
24/04:30am - - - - - WNW 30 41 16 22 - - -
24/04:00am - - - - - WNW 32 37 17 20 - - -
24/03:30am - - - - - WNW 28 35 15 19 - - -
24/03:00am - - - - - W 28 33 15 18 - - -
24/02:30am - - - - - W 33 39 18 21 - - -
24/02:00am - - - - - W 32 37 17 20 - - -
24/01:30am - - - - - W 32 37 17 20 - - -
24/01:00am - - - - - W 32 35 17 19 - - -
24/12:30am - - - - - WNW 17 32 9 17 - - -
24/12:00am - - - - - NW 17 22 9 12 - - -
 
Date/Time
EST
Temp
°C
App
Temp
°C
Dew
Point
°C
Rel
Hum
%
Delta-T
°C
Wind Press
QNH
hPa
Press
MSL
hPa
Rain since
9am
mm
Dir  Spd
km/h
Gust
km/h
Spd
kts
Gust
kts
23/11:30pm - - - - - WNW 15 20 8 11 - - -
23/11:00pm - - - - - WNW 22 28 12 15 - - -
23/10:30pm - - - - - WNW 22 26 12 14 - - -
23/10:00pm - - - - - NW 17 24 9 13 - - -
23/09:30pm - - - - - NW 11 17 6 9 - - -
23/09:00pm - - - - - W 19 22 10 12 - - -
23/08:30pm - - - - - W 15 19 8 10 - - -
23/08:00pm - - - - - NW 9 15 5 8 - - -
23/07:30pm - - - - - NW 7 13 4 7 - - -
23/07:00pm - - - - - WNW 11 17 6 9 - - -
23/06:30pm - - - - - W 15 19 8 10 - - -
23/06:00pm - - - - - W 17 22 9 12 - - -
23/05:30pm - - - - - WSW 19 20 10 11 - - -
23/05:00pm - - - - - WSW 15 22 8 12 - - -
23/04:30pm - - - - - WSW 19 24 10 13 - - -
23/04:00pm - - - - - WSW 19 24 10 13 - - -
23/03:30pm - - - - - WSW 22 28 12 15 - - -
23/03:00pm - - - - - SW 20 26 11 14 - - -
23/02:30pm - - - - - SW 20 26 11 14 - - -
23/02:00pm - - - - - SW 20 28 11 15 - - -
23/01:30pm - - - - - SW 19 24 10 13 - - -
23/01:00pm - - - - - WSW 15 22 8 12 - - -
23/12:30pm - - - - - SW 15 19 8 10 - - -
23/12:00pm - - - - - SW 17 20 9 11 - - -
23/11:30am - - - - - SW 15 20 8 11 - - -
23/11:00am - - - - - SW 13 20 7 11 - - -
23/10:30am - - - - - SW 17 24 9 13 - - -
23/10:00am - - - - - SW 22 30 12 16 - - -
23/09:30am - - - - - SSW 20 26 11 14 - - -
23/09:00am - - - - - SSW 15 20 8 11 - - -
23/08:30am - - - - - SW 20 26 11 14 - - -
23/08:00am - - - - - S 13 20 7 11 - - -
23/07:30am - - - - - SE 9 15 5 8 - - -
23/07:00am - - - - - SSE 15 24 8 13 - - -
23/06:30am - - - - - SSW 17 26 9 14 - - -
23/06:00am - - - - - SSW 19 30 10 16 - - -
23/05:30am - - - - - S 28 39 15 21 - - -
23/05:00am - - - - - SSE 19 32 10 17 - - -
23/04:30am - - - - - S 24 30 13 16 - - -
23/04:00am - - - - - SSE 19 26 10 14 - - -
23/03:30am - - - - - S 20 30 11 16 - - -
23/03:00am - - - - - S 19 26 10 14 - - -
23/02:30am - - - - - S 17 26 9 14 - - -
23/02:00am - - - - - SSW 17 41 9 22 - - -
23/01:30am - - - - - S 24 41 13 22 - - -
23/01:00am - - - - - S 28 46 15 25 - - -
23/12:55am - - - - - SSW 28 46 15 25 - - -
23/12:30am - - - - - SSW 28 35 15 19 - - -
23/12:11am - - - - - SSW 28 54 15 29 - - -
23/12:00am - - - - - S 28 44 15 24 - - -
 
Date/Time
EST
Temp
°C
App
Temp
°C
Dew
Point
°C
Rel
Hum
%
Delta-T
°C
Wind Press
QNH
hPa
Press
MSL
hPa
Rain since
9am
mm
Dir  Spd
km/h
Gust
km/h
Spd
kts
Gust
kts
22/11:30pm - - - - - SSW 28 48 15 26 - - -
22/11:28pm - - - - - SSW 30 48 16 26 - - -
22/11:00pm - - - - - S 28 41 15 22 - - -
22/10:30pm - - - - - S 28 43 15 23 - - -
22/10:18pm - - - - - S 28 46 15 25 - - -
22/10:00pm - - - - - S 30 39 16 21 - - -
22/09:30pm - - - - - S 32 41 17 22 - - -
22/09:00pm - - - - - S 32 39 17 21 - - -
22/08:30pm - - - - - S 30 41 16 22 - - -
22/08:00pm - - - - - S 24 33 13 18 - - -
22/07:30pm - - - - - S 30 39 16 21 - - -
22/07:00pm - - - - - S 33 43 18 23 - - -
22/06:30pm - - - - - SSW 33 41 18 22 - - -
22/06:00pm - - - - - S 39 50 21 27 - - -
22/05:30pm - - - - - S 33 46 18 25 - - -
22/05:00pm - - - - - S 35 46 19 25 - - -
22/04:30pm - - - - - S 37 48 20 26 - - -
22/04:00pm - - - - - S 35 43 19 23 - - -
22/03:30pm - - - - - S 32 43 17 23 - - -
22/03:01pm - - - - - S 37 56 20 30 - - -
22/03:00pm - - - - - S 39 56 21 30 - - -
22/02:30pm - - - - - S 39 46 21 25 - - -
22/02:09pm - - - - - S 37 61 20 33 - - -
22/02:00pm - - - - - S 33 46 18 25 - - -
22/01:30pm - - - - - S 33 56 18 30 - - -
22/01:03pm - - - - - SSE 33 52 18 28 - - -
22/01:00pm - - - - - SSE 35 52 19 28 - - -
22/12:30pm - - - - - SSE 28 46 15 25 - - -
22/12:00pm - - - - - S 33 63 18 34 - - -
22/11:30am - - - - - S 33 52 18 28 - - -
22/11:00am - - - - - SSE 35 65 19 35 - - -
22/10:30am - - - - - S 32 56 17 30 - - -
22/10:12am - - - - - SSE 28 54 15 29 - - -
22/10:00am - - - - - SSE 26 46 14 25 - - -
22/09:52am - - - - - SSE 28 46 15 25 - - -
22/09:30am - - - - - SSE 28 43 15 23 - - -
22/09:00am - - - - - SSW 28 48 15 26 - - -
22/08:30am - - - - - S 32 52 17 28 - - -
22/08:26am - - - - - S 39 56 21 30 - - -
22/08:17am - - - - - S 32 50 17 27 - - -
22/08:00am - - - - - SSE 33 44 18 24 - - -
22/07:30am - - - - - S 39 57 21 31 - - -
22/07:03am - - - - - SSE 39 57 21 31 - - -
22/07:00am - - - - - SSE 39 56 21 30 - - -
22/06:30am - - - - - S 39 57 21 31 - - -
22/06:00am - - - - - S 46 74 25 40 - - -
22/05:30am - - - - - S 41 76 22 41 - - -
22/05:00am - - - - - S 43 65 23 35 - - -
22/04:52am - - - - - S 43 65 23 35 - - -
22/04:30am - - - - - S 48 59 26 32 - - -
22/04:04am - - - - - S 44 67 24 36 - - -
22/04:00am - - - - - S 46 57 25 31 - - -
22/03:41am - - - - - S 50 69 27 37 - - -
22/03:30am - - - - - S 50 67 27 36 - - -
22/03:01am - - - - - S 52 82 28 44 - - -
22/03:00am - - - - - S 52 65 28 35 - - -
22/02:30am - - - - - S 50 67 27 36 - - -
22/02:00am - - - - - S 54 63 29 34 - - -
22/01:30am - - - - - SSW 52 63 28 34 - - -
22/01:00am - - - - - S 44 56 24 30 - - -
22/12:55am - - - - - S 46 65 25 35 - - -
22/12:30am - - - - - SSW 50 61 27 33 - - -
22/12:00am - - - - - SSW 50 61 27 33 - - -
 
Date/Time
EST
Temp
°C
App
Temp
°C
Dew
Point
°C
Rel
Hum
%
Delta-T
°C
Wind Press
QNH
hPa
Press
MSL
hPa
Rain since
9am
mm
Dir  Spd
km/h
Gust
km/h
Spd
kts
Gust
kts
21/11:30pm - - - - - S 50 65 27 35 - - -
21/11:22pm - - - - - S 44 63 24 34 - - -
21/11:00pm - - - - - S 43 54 23 29 - - -
21/10:30pm - - - - - S 50 59 27 32 - - -
21/10:00pm - - - - - S 50 65 27 35 - - -
21/09:30pm - - - - - S 52 63 28 34 - - -
21/09:00pm - - - - - S 46 63 25 34 - - -
21/08:30pm - - - - - S 50 63 27 34 - - -
21/08:15pm - - - - - S 50 69 27 37 - - -
21/08:00pm - - - - - S 50 63 27 34 - - -
21/07:30pm - - - - - S 54 67 29 36 - - -
21/07:00pm - - - - - S 54 67 29 36 - - -
21/06:42pm - - - - - S 50 70 27 38 - - -
21/06:30pm - - - - - SSW 52 67 28 36 - - -
21/06:19pm - - - - - S 52 72 28 39 - - -
21/06:00pm - - - - - SSW 54 69 29 37 - - -
21/05:30pm - - - - - SSW 57 70 31 38 - - -
21/05:00pm - - - - - S 50 63 27 34 - - -
21/04:30pm - - - - - SSW 56 74 30 40 - - -
21/04:10pm - - - - - SSW 56 74 30 40 - - -
21/04:00pm - - - - - SSW 56 72 30 39 - - -
21/03:30pm - - - - - S 50 72 27 39 - - -
21/03:17pm - - - - - SSW 52 72 28 39 - - -
21/03:00pm - - - - - SSW 52 67 28 36 - - -
21/02:30pm - - - - - S 54 69 29 37 - - -
21/02:00pm - - - - - SSW 52 63 28 34 - - -
21/01:30pm - - - - - SSW 52 65 28 35 - - -
21/01:00pm - - - - - S 52 65 28 35 - - -
21/12:30pm - - - - - S 50 59 27 32 - - -
21/12:11pm - - - - - SSW 50 69 27 37 - - -
21/12:00pm - - - - - S 48 57 26 31 - - -
21/11:30am - - - - - SSW 52 65 28 35 - - -
21/11:20am - - - - - S 52 72 28 39 - - -
21/11:00am - - - - - S 52 69 28 37 - - -
21/10:30am - - - - - S 52 63 28 34 - - -
21/10:00am - - - - - SSW 52 65 28 35 - - -
21/09:30am - - - - - SSW 52 65 28 35 - - -
21/09:11am - - - - - SSW 50 69 27 37 - - -
21/09:00am - - - - - S 50 65 27 35 - - -
21/08:30am - - - - - S 52 61 28 33 - - -
21/08:00am - - - - - SSW 54 69 29 37 - - -
21/07:30am - - - - - SSW 52 65 28 35 - - -
21/07:06am - - - - - S 50 70 27 38 - - -
21/07:00am - - - - - SSW 48 61 26 33 - - -

Other Formats:

Comma delimited format used in spreadsheet applications
http://www.bom.gov.au/fwo/IDN60801/IDN60801.95995.axf

JavaScript Object Notation format (JSON) in row-major order
http://www.bom.gov.au/fwo/IDN60801/IDN60801.95995.json